| time (UTC) | temp F | wind direction | speed knots | gust knots | rain 1hr in | rain 24hr in | rain mn in | humidity % | barometer mb |
| 20260905223003 | 57 | 260 | 2.6 | 0.0 | 0.00 | 0.00 | 0.00 | 83 | 1015.1 |
| 20260905221503 | 57 | 260 | 2.6 | 0.0 | 0.00 | 0.00 | 0.00 | 83 | 1015.1 |
| 20260905220006 | 59 | 270 | 2.6 | 0.0 | 0.00 | 0.00 | 0.00 | 76 | 1014.5 |
| 20260905214503 | 59 | 270 | 2.6 | 0.0 | 0.00 | 0.00 | 0.00 | 76 | 1014.5 |
| 20260905213004 | 59 | 270 | 2.6 | 0.0 | 0.00 | 0.00 | 0.00 | 76 | 1014.5 |
| 20260905211504 | 59 | 270 | 2.6 | 0.0 | 0.00 | 0.00 | 0.00 | 76 | 1014.5 |
| 20260905210004 | 60 | 260 | 2.6 | 0.0 | 0.00 | 0.00 | 0.00 | 70 | 1014.1 |
| 20260905204503 | 60 | 260 | 2.6 | 0.0 | 0.00 | 0.00 | 0.00 | 70 | 1014.1 |
| 20260905203003 | 60 | 260 | 2.6 | 0.0 | 0.00 | 0.00 | 0.00 | 70 | 1014.1 |
| 20260905201503 | 60 | 260 | 2.6 | 0.0 | 0.00 | 0.00 | 0.00 | 70 | 1014.1 |
| 20260905200004 | 60 | 230 | 0.9 | 0.0 | 0.00 | 0.00 | 0.00 | 72 | 1014.1 |
| 20260905194504 | 60 | 230 | 0.9 | 0.0 | 0.00 | 0.00 | 0.00 | 72 | 1014.1 |
| 20260905193004 | 60 | 230 | 0.9 | 0.0 | 0.00 | 0.00 | 0.00 | 72 | 1014.1 |
| 20260905191503 | 60 | 250 | 0.9 | 0.0 | 0.00 | 0.00 | 0.00 | 69 | 1014.4 |
| 20260905190003 | 60 | 250 | 0.9 | 0.0 | 0.00 | 0.00 | 0.00 | 69 | 1014.4 |
| 20260905184505 | 60 | 250 | 0.9 | 0.0 | 0.00 | 0.00 | 0.00 | 69 | 1014.4 |
| 20260905183003 | 60 | 250 | 0.9 | 0.0 | 0.00 | 0.00 | 0.00 | 69 | 1014.4 |
| 20260905181504 | 60 | 250 | 0.9 | 0.0 | 0.00 | 0.00 | 0.00 | 69 | 1014.4 |
| 20260905180003 | 62 | 260 | 1.7 | 0.0 | 0.00 | 0.00 | 0.00 | 64 | 1013.9 |
| 20260905174503 | 62 | 260 | 1.7 | 0.0 | 0.00 | 0.00 | 0.00 | 64 | 1013.9 |
| 20260905173004 | 62 | 260 | 1.7 | 0.0 | 0.00 | 0.00 | 0.00 | 64 | 1013.9 |
| 20260905171503 | 62 | 260 | 1.7 | 0.0 | 0.00 | 0.00 | 0.00 | 60 | 1013.5 |
| 20260905170004 | 62 | 260 | 1.7 | 0.0 | 0.00 | 0.00 | 0.00 | 60 | 1013.5 |
| 20260905164504 | 62 | 260 | 1.7 | 0.0 | 0.00 | 0.00 | 0.00 | 60 | 1013.5 |
| 20260905163003 | 62 | 260 | 1.7 | 0.0 | 0.00 | 0.00 | 0.00 | 60 | 1013.5 |
| 20260905161503 | 62 | 260 | 1.7 | 0.0 | 0.00 | 0.00 | 0.00 | 60 | 1013.5 |
| 20260905160004 | 66 | 270 | 4.3 | 0.0 | 0.00 | 0.00 | 0.00 | 50 | 1013.2 |
| 20260905154503 | 66 | 270 | 4.3 | 0.0 | 0.00 | 0.00 | 0.00 | 50 | 1013.2 |
| 20260905153003 | 66 | 270 | 4.3 | 0.0 | 0.00 | 0.00 | 0.00 | 50 | 1013.2 |
| 20260905151503 | 69 | 270 | 3.5 | 0.0 | 0.00 | 0.00 | 0.00 | 43 | 1012.3 |
| 20260905150003 | 69 | 270 | 3.5 | 0.0 | 0.00 | 0.00 | 0.00 | 43 | 1012.3 |
| 20260905144504 | 69 | 270 | 3.5 | 0.0 | 0.00 | 0.00 | 0.00 | 43 | 1012.3 |
| 20260905143004 | 69 | 270 | 3.5 | 0.0 | 0.00 | 0.00 | 0.00 | 43 | 1012.3 |
| 20260905141504 | 69 | 270 | 3.5 | 0.0 | 0.00 | 0.00 | 0.00 | 43 | 1012.3 |
| 20260905140003 | 68 | 270 | 4.3 | 0.0 | 0.00 | 0.00 | 0.00 | 45 | 1012.3 |
| 20260905134503 | 68 | 270 | 4.3 | 0.0 | 0.00 | 0.00 | 0.00 | 45 | 1012.3 |
| 20260905133003 | 68 | 270 | 4.3 | 0.0 | 0.00 | 0.00 | 0.00 | 45 | 1012.3 |
| 20260905131502 | 68 | 270 | 4.3 | 0.0 | 0.00 | 0.00 | 0.00 | 45 | 1012.3 |
| 20260905130004 | 68 | 270 | 3.5 | 0.0 | 0.00 | 0.00 | 0.00 | 46 | 1012.3 |
| 20260905124503 | 68 | 270 | 3.5 | 0.0 | 0.00 | 0.00 | 0.00 | 46 | 1012.3 |
| 20260905123005 | 68 | 270 | 3.5 | 0.0 | 0.00 | 0.00 | 0.00 | 46 | 1012.3 |
| 20260905121503 | 68 | 270 | 3.5 | 0.0 | 0.00 | 0.00 | 0.00 | 46 | 1012.3 |
| 20260905120003 | 68 | 260 | 3.5 | 0.0 | 0.00 | 0.00 | 0.00 | 50 | 1012.2 |
| 20260905114504 | 68 | 260 | 3.5 | 0.0 | 0.00 | 0.00 | 0.00 | 50 | 1012.2 |
| 20260905113003 | 68 | 260 | 3.5 | 0.0 | 0.00 | 0.00 | 0.00 | 50 | 1012.2 |
| 20260905111503 | 68 | 260 | 3.5 | 0.0 | 0.00 | 0.00 | 0.00 | 50 | 1012.2 |
| 20260905110003 | 66 | 260 | 3.5 | 0.0 | 0.00 | 0.00 | 0.00 | 55 | 1011.7 |
| 20260905104504 | 66 | 260 | 3.5 | 0.0 | 0.00 | 0.00 | 0.00 | 55 | 1011.7 |
| 20260905103003 | 66 | 260 | 3.5 | 0.0 | 0.00 | 0.00 | 0.00 | 55 | 1011.7 |
| 20260905101503 | 66 | 260 | 3.5 | 0.0 | 0.00 | 0.00 | 0.00 | 55 | 1011.7 |
| 20260905100003 | 64 | 270 | 3.5 | 0.0 | 0.00 | 0.00 | 0.00 | 62 | 1011.5 |
| 20260905094503 | 64 | 270 | 3.5 | 0.0 | 0.00 | 0.00 | 0.00 | 62 | 1011.5 |
| 20260905093003 | 64 | 270 | 3.5 | 0.0 | 0.00 | 0.00 | 0.00 | 62 | 1011.5 |
| 20260905091503 | 64 | 270 | 3.5 | 0.0 | 0.00 | 0.00 | 0.00 | 62 | 1011.5 |
| 20260905090003 | 63 | 260 | 3.5 | 0.0 | 0.00 | 0.00 | 0.00 | 67 | 1011.4 |
| 20260905084503 | 63 | 260 | 3.5 | 0.0 | 0.00 | 0.00 | 0.00 | 67 | 1011.4 |
| 20260905083005 | 63 | 260 | 3.5 | 0.0 | 0.00 | 0.00 | 0.00 | 67 | 1011.4 |
| 20260905081503 | 62 | 260 | 2.6 | 0.0 | 0.00 | 0.00 | 0.00 | 72 | 1010.7 |
| 20260905080004 | 62 | 260 | 2.6 | 0.0 | 0.00 | 0.00 | 0.00 | 72 | 1010.7 |
| 20260905074503 | 62 | 260 | 2.6 | 0.0 | 0.00 | 0.00 | 0.00 | 72 | 1010.7 |
| 20260905073003 | 62 | 260 | 2.6 | 0.0 | 0.00 | 0.00 | 0.00 | 72 | 1010.7 |
| 20260905071503 | 61 | 270 | 2.6 | 0.0 | 0.00 | 0.00 | 0.00 | 72 | 1010.1 |
| 20260905070004 | 61 | 270 | 2.6 | 0.0 | 0.00 | 0.00 | 0.00 | 72 | 1010.1 |
| 20260905064503 | 61 | 270 | 2.6 | 0.0 | 0.00 | 0.00 | 0.00 | 72 | 1010.1 |
| 20260905063003 | 61 | 270 | 2.6 | 0.0 | 0.00 | 0.00 | 0.00 | 72 | 1010.1 |
| 20260905061503 | 61 | 270 | 2.6 | 0.0 | 0.00 | 0.00 | 0.00 | 72 | 1010.1 |
| 20260905060003 | 60 | 270 | 2.6 | 0.0 | 0.00 | 0.00 | 0.00 | 70 | 1009.4 |
| 20260905054503 | 60 | 270 | 2.6 | 0.0 | 0.00 | 0.00 | 0.00 | 70 | 1009.4 |
| 20260905053003 | 60 | 270 | 2.6 | 0.0 | 0.00 | 0.00 | 0.00 | 70 | 1009.4 |
| 20260905051503 | 60 | 270 | 2.6 | 0.0 | 0.00 | 0.00 | 0.00 | 70 | 1009.4 |
| 20260905050003 | 62 | 260 | 3.5 | 0.0 | 0.00 | 0.00 | 0.00 | 75 | 1008.1 |
| 20260905044504 | 62 | 260 | 3.5 | 0.0 | 0.00 | 0.00 | 0.00 | 75 | 1008.1 |
| 20260905043003 | 62 | 260 | 3.5 | 0.0 | 0.00 | 0.00 | 0.00 | 75 | 1008.1 |
| 20260905041503 | 62 | 260 | 3.5 | 0.0 | 0.00 | 0.00 | 0.00 | 75 | 1008.1 |
| 20260905040003 | 63 | 260 | 2.6 | 0.0 | 0.00 | 0.00 | 0.00 | 80 | 1007.2 |
| 20260905034504 | 63 | 260 | 2.6 | 0.0 | 0.00 | 0.00 | 0.00 | 80 | 1007.2 |
| 20260905033003 | 63 | 260 | 2.6 | 0.0 | 0.00 | 0.00 | 0.00 | 80 | 1007.2 |
| 20260905031503 | 63 | 260 | 2.6 | 0.0 | 0.00 | 0.00 | 0.00 | 80 | 1007.2 |
| 20260905030004 | 63 | 260 | 2.6 | 0.0 | 0.00 | 0.00 | 0.00 | 80 | 1006.8 |
| 20260905024503 | 63 | 260 | 2.6 | 0.0 | 0.00 | 0.00 | 0.00 | 80 | 1006.8 |
| 20260905023004 | 63 | 260 | 2.6 | 0.0 | 0.00 | 0.00 | 0.00 | 80 | 1006.8 |
| 20260905021503 | 64 | 260 | 3.5 | 0.0 | 0.00 | 0.00 | 0.00 | 79 | 1006.2 |
| 20260905020004 | 64 | 260 | 3.5 | 0.0 | 0.00 | 0.00 | 0.00 | 79 | 1006.2 |
| 20260905014503 | 64 | 260 | 3.5 | 0.0 | 0.00 | 0.00 | 0.00 | 79 | 1006.2 |
| 20260905013005 | 64 | 260 | 3.5 | 0.0 | 0.00 | 0.00 | 0.00 | 79 | 1006.2 |
| 20260905011503 | 65 | 250 | 2.6 | 0.0 | 0.00 | 0.00 | 0.00 | 84 | 1005.6 |
| 20260905010004 | 65 | 250 | 2.6 | 0.0 | 0.00 | 0.00 | 0.00 | 84 | 1005.6 |
| 20260905004503 | 65 | 250 | 2.6 | 0.0 | 0.00 | 0.00 | 0.00 | 84 | 1005.6 |
| 20260905003004 | 65 | 250 | 2.6 | 0.0 | 0.00 | 0.00 | 0.00 | 84 | 1005.6 |
| 20260905001503 | 65 | 250 | 2.6 | 0.0 | 0.00 | 0.00 | 0.00 | 84 | 1005.6 |
| 20260905000004 | 65 | 250 | 0.9 | 0.0 | 0.00 | 0.00 | 0.00 | 89 | 1005.4 |
| 20260904234503 | 65 | 250 | 0.9 | 0.0 | 0.00 | 0.00 | 0.00 | 89 | 1005.4 |
| 20260904233004 | 65 | 250 | 0.9 | 0.0 | 0.00 | 0.00 | 0.00 | 89 | 1005.4 |
| 20260904231503 | 65 | 250 | 0.9 | 0.0 | 0.00 | 0.00 | 0.00 | 89 | 1005.4 |
| 20260904230003 | 64 | 250 | 0.9 | 0.0 | 0.00 | 0.00 | 0.00 | 88 | 1005.0 |
| 20260904224503 | 64 | 250 | 0.9 | 0.0 | 0.00 | 0.00 | 0.00 | 88 | 1005.0 |